createdAt,value
2023-02-28T00:01:47.075Z,100.00
2023-02-28T00:04:16.200Z,100.00
2023-02-28T00:06:45.304Z,100.00
2023-02-28T00:09:15.753Z,100.00
2023-02-28T00:11:44.896Z,100.00
2023-02-28T00:14:14.047Z,100.00
2023-02-28T00:16:43.286Z,100.00
2023-02-28T00:19:14.307Z,100.00
2023-02-28T00:21:43.925Z,100.00
2023-02-28T00:24:13.077Z,100.00
2023-02-28T00:26:43.517Z,100.00
2023-02-28T00:29:12.746Z,100.00
2023-02-28T00:31:41.789Z,100.00
2023-02-28T00:34:10.893Z,100.00
2023-02-28T00:36:40.037Z,100.00
2023-02-28T00:39:09.186Z,100.00
2023-02-28T00:41:38.302Z,100.00
2023-02-28T00:44:08.865Z,100.00
2023-02-28T00:46:38.001Z,100.00
2023-02-28T00:49:07.217Z,100.00
2023-02-28T00:51:38.402Z,100.00
2023-02-28T00:54:07.547Z,100.00
2023-02-28T00:56:36.623Z,100.00
2023-02-28T00:59:08.373Z,100.00
2023-02-28T01:01:37.713Z,100.00
2023-02-28T01:04:06.883Z,100.00
2023-02-28T01:06:36.811Z,100.00
2023-02-28T01:09:07.327Z,100.00
2023-02-28T01:11:37.225Z,100.00
2023-02-28T01:14:07.720Z,100.00
2023-02-28T01:16:36.828Z,100.00
2023-02-28T01:19:05.933Z,100.00
2023-02-28T01:21:35.795Z,100.00
2023-02-28T01:24:06.028Z,100.00
2023-02-28T01:26:35.412Z,100.00
2023-02-28T01:29:04.723Z,100.00
2023-02-28T01:31:35.539Z,100.00
2023-02-28T01:34:05.365Z,100.00
2023-02-28T01:36:34.614Z,100.00
2023-02-28T01:39:03.938Z,100.00
2023-02-28T01:41:35.540Z,100.00
2023-02-28T01:44:08.654Z,100.00
2023-02-28T01:46:39.217Z,100.00
2023-02-28T01:49:11.164Z,100.00
2023-02-28T01:51:47.216Z,100.00
2023-02-28T01:54:20.545Z,100.00
2023-02-28T01:56:55.537Z,100.00
2023-02-28T01:59:28.867Z,100.00
2023-02-28T02:01:59.580Z,100.00
2023-02-28T02:04:34.417Z,100.00
2023-02-28T02:07:03.591Z,100.00
2023-02-28T02:09:32.783Z,100.00
2023-02-28T02:12:08.472Z,100.00
2023-02-28T02:15:02.016Z,100.00
2023-02-28T02:17:38.798Z,100.00
2023-02-28T02:20:53.164Z,100.00
2023-02-28T02:23:55.724Z,100.00
2023-02-28T02:26:54.208Z,100.00
2023-02-28T02:30:03.321Z,100.00
2023-02-28T02:33:04.496Z,100.00
2023-02-28T02:35:42.240Z,100.00
2023-02-28T02:38:16.958Z,100.00
2023-02-28T02:40:54.187Z,100.00
2023-02-28T02:43:31.109Z,100.00
2023-02-28T02:46:06.404Z,100.00
2023-02-28T02:48:38.421Z,100.00
2023-02-28T02:51:13.544Z,100.00
2023-02-28T02:53:51.235Z,100.00
2023-02-28T02:56:25.690Z,100.00
2023-02-28T02:59:01.911Z,100.00
2023-02-28T03:01:33.402Z,100.00
2023-02-28T03:04:06.360Z,100.00
2023-02-28T03:06:37.111Z,100.00
2023-02-28T03:09:06.451Z,100.00
2023-02-28T03:11:37.148Z,100.00
2023-02-28T03:14:30.877Z,100.00
2023-02-28T03:17:16.492Z,100.00
2023-02-28T03:19:56.663Z,100.00
2023-02-28T03:22:45.564Z,100.00
2023-02-28T03:25:22.761Z,100.00
2023-02-28T03:28:01.900Z,100.00
2023-02-28T03:30:40.340Z,100.00
2023-02-28T03:33:13.963Z,100.00
2023-02-28T03:35:47.405Z,100.00
2023-02-28T03:38:22.757Z,100.00
2023-02-28T03:40:57.360Z,100.00
2023-02-28T03:43:32.504Z,100.00
2023-02-28T03:46:05.030Z,100.00
2023-02-28T03:48:41.331Z,100.00
2023-02-28T03:51:13.443Z,100.00
2023-02-28T03:53:48.202Z,100.00
2023-02-28T03:56:20.593Z,100.00
2023-02-28T03:58:55.965Z,100.00
2023-02-28T04:01:30.838Z,100.00
2023-02-28T04:04:00.525Z,100.00
2023-02-28T04:06:32.506Z,100.00
2023-02-28T04:09:03.822Z,100.00
2023-02-28T04:11:36.802Z,100.00
2023-02-28T04:14:06.861Z,100.00
2023-02-28T04:16:37.815Z,100.00
2023-02-28T04:19:08.428Z,100.00
2023-02-28T04:21:39.871Z,100.00
2023-02-28T04:24:15.131Z,100.00
2023-02-28T04:26:45.736Z,100.00
2023-02-28T04:29:16.625Z,100.00
2023-02-28T04:31:45.831Z,100.00
2023-02-28T04:34:15.293Z,100.00
2023-02-28T04:36:44.401Z,100.00
2023-02-28T04:39:14.970Z,100.00
2023-02-28T04:41:44.069Z,100.00
2023-02-28T04:44:13.415Z,100.00
2023-02-28T04:46:42.543Z,100.00
2023-02-28T04:49:12.678Z,100.00
2023-02-28T04:51:42.221Z,100.00
2023-02-28T04:54:11.429Z,100.00
2023-02-28T04:56:41.853Z,100.00
2023-02-28T04:59:10.913Z,100.00
2023-02-28T05:01:39.981Z,100.00
2023-02-28T05:04:09.011Z,100.00
2023-02-28T05:06:38.119Z,100.00
2023-02-28T05:09:07.141Z,100.00
2023-02-28T05:11:38.199Z,100.00
2023-02-28T05:14:13.343Z,100.00
2023-02-28T05:16:42.543Z,100.00
2023-02-28T05:19:11.655Z,100.00
2023-02-28T05:21:42.276Z,100.00
2023-02-28T05:24:13.534Z,100.00
2023-02-28T05:26:44.320Z,100.00
2023-02-28T05:29:14.839Z,100.00
2023-02-28T05:31:44.672Z,100.00
2023-02-28T05:34:16.675Z,100.00
2023-02-28T05:36:45.857Z,100.00
2023-02-28T05:39:14.935Z,100.00
2023-02-28T05:41:44.373Z,100.00
2023-02-28T05:44:14.810Z,100.00
2023-02-28T05:46:44.015Z,100.00
2023-02-28T05:49:13.221Z,100.00
2023-02-28T05:51:42.311Z,100.00
2023-02-28T05:54:13.800Z,100.00
2023-02-28T05:56:45.091Z,100.00
2023-02-28T05:59:15.787Z,100.00
2023-02-28T06:01:49.128Z,100.00
2023-02-28T06:04:31.166Z,100.00
2023-02-28T06:07:01.180Z,100.00
2023-02-28T06:09:30.614Z,100.00
2023-02-28T06:12:00.934Z,100.00
2023-02-28T06:14:32.125Z,100.00
2023-02-28T06:17:01.995Z,100.00
2023-02-28T06:19:32.551Z,100.00
2023-02-28T06:22:01.610Z,100.00
2023-02-28T06:24:31.329Z,100.00
2023-02-28T06:27:05.759Z,100.00
2023-02-28T06:29:37.270Z,100.00
2023-02-28T06:32:06.380Z,100.00
2023-02-28T06:34:35.749Z,100.00
2023-02-28T06:37:04.974Z,100.00
2023-02-28T06:39:34.101Z,100.00
2023-02-28T06:42:03.185Z,100.00
2023-02-28T06:44:36.195Z,100.00
2023-02-28T06:47:07.840Z,100.00
2023-02-28T06:49:38.071Z,100.00
2023-02-28T06:52:07.138Z,100.00
2023-02-28T06:54:36.207Z,100.00
2023-02-28T06:57:05.703Z,100.00
2023-02-28T06:59:36.059Z,100.00
2023-02-28T07:02:07.743Z,100.00
2023-02-28T07:04:37.069Z,100.00
2023-02-28T07:07:06.167Z,100.00
2023-02-28T07:09:35.566Z,100.00
2023-02-28T07:12:04.974Z,100.00
2023-02-28T07:14:34.066Z,100.00
2023-02-28T07:17:03.179Z,100.00
2023-02-28T07:19:33.585Z,100.00
2023-02-28T07:22:03.843Z,100.00
2023-02-28T07:24:33.212Z,100.00
2023-02-28T07:27:02.504Z,100.00
2023-02-28T07:29:31.688Z,100.00
2023-02-28T07:32:00.799Z,100.00
2023-02-28T07:34:30.038Z,100.00
2023-02-28T07:37:00.846Z,100.00
2023-02-28T07:39:29.894Z,100.00
2023-02-28T07:42:00.573Z,100.00
2023-02-28T07:44:29.753Z,100.00
2023-02-28T07:46:58.854Z,100.00
2023-02-28T07:49:28.000Z,100.00
2023-02-28T07:51:57.005Z,100.00
2023-02-28T07:54:27.496Z,100.00
2023-02-28T07:56:56.582Z,100.00
2023-02-28T07:59:26.156Z,100.00
2023-02-28T08:01:55.216Z,100.00
2023-02-28T08:04:24.292Z,100.00
2023-02-28T08:06:54.015Z,100.00
2023-02-28T08:09:23.107Z,100.00
2023-02-28T08:11:53.538Z,100.00
2023-02-28T08:14:22.666Z,100.00
2023-02-28T08:16:51.724Z,100.00
2023-02-28T08:19:20.805Z,100.00
2023-02-28T08:21:49.923Z,100.00
2023-02-28T08:24:18.997Z,100.00
2023-02-28T08:26:48.103Z,100.00
2023-02-28T08:29:18.556Z,100.00
2023-02-28T08:31:47.743Z,100.00
2023-02-28T08:34:18.186Z,100.00
2023-02-28T08:36:47.600Z,100.00
2023-02-28T08:39:16.653Z,100.00
2023-02-28T08:41:47.959Z,100.00
2023-02-28T08:44:19.851Z,100.00
2023-02-28T08:46:48.943Z,100.00
2023-02-28T08:49:18.056Z,100.00
2023-02-28T08:51:47.147Z,100.00
2023-02-28T08:54:20.240Z,100.00
2023-02-28T08:56:49.546Z,100.00
2023-02-28T08:59:20.356Z,100.00
2023-02-28T09:01:49.541Z,100.00
2023-02-28T09:04:20.379Z,100.00
2023-02-28T09:06:50.572Z,100.00
2023-02-28T09:09:19.653Z,100.00
2023-02-28T09:11:48.725Z,100.00
2023-02-28T09:14:19.373Z,100.00
2023-02-28T09:16:48.541Z,100.00
2023-02-28T09:19:17.723Z,100.00
2023-02-28T09:21:46.835Z,100.00
2023-02-28T09:24:16.177Z,100.00
2023-02-28T09:26:56.478Z,100.00
2023-02-28T09:29:35.412Z,100.00
2023-02-28T09:32:06.643Z,100.00
2023-02-28T09:34:37.889Z,100.00
2023-02-28T09:37:07.174Z,100.00
2023-02-28T09:39:36.351Z,100.00
2023-02-28T09:42:07.661Z,100.00
2023-02-28T09:44:41.269Z,100.00
2023-02-28T09:47:18.097Z,100.00
2023-02-28T09:49:49.990Z,100.00
2023-02-28T09:52:23.449Z,100.00
2023-02-28T09:54:52.558Z,100.00
2023-02-28T09:57:31.565Z,100.00
2023-02-28T10:00:11.301Z,100.00
2023-02-28T10:03:00.824Z,100.00
2023-02-28T10:05:33.369Z,100.00
2023-02-28T10:08:13.569Z,100.00
2023-02-28T10:10:44.806Z,98.96
2023-02-28T10:13:24.148Z,99.32
2023-02-28T10:16:00.673Z,98.57
2023-02-28T10:18:40.397Z,100.00
2023-02-28T10:21:21.920Z,99.57
2023-02-28T10:23:51.638Z,97.34
2023-02-28T10:26:21.224Z,99.92
2023-02-28T10:28:50.341Z,99.45
2023-02-28T10:31:22.329Z,98.36
2023-02-28T10:33:52.749Z,98.81
2023-02-28T10:36:23.357Z,92.09
2023-02-28T10:38:52.630Z,93.71
2023-02-28T10:41:32.844Z,91.43
2023-02-28T10:44:21.528Z,90.84
2023-02-28T10:46:52.770Z,88.37
2023-02-28T10:49:24.878Z,89.68
2023-02-28T10:51:57.788Z,89.04
2023-02-28T10:54:31.710Z,89.54
2023-02-28T10:57:18.663Z,87.06
2023-02-28T10:59:52.157Z,87.07
2023-02-28T11:02:35.600Z,87.22
2023-02-28T11:05:25.199Z,82.26
2023-02-28T11:07:55.921Z,77.35
2023-02-28T11:10:29.002Z,74.85
2023-02-28T11:13:01.188Z,81.65
2023-02-28T11:15:33.359Z,79.05
2023-02-28T11:18:19.165Z,75.08
2023-02-28T11:20:52.658Z,69.34
2023-02-28T11:23:26.292Z,74.76
2023-02-28T11:25:58.571Z,78.80
2023-02-28T11:28:32.055Z,68.54
2023-02-28T11:31:20.412Z,70.31
2023-02-28T11:33:52.378Z,69.67
2023-02-28T11:36:25.983Z,73.78
2023-02-28T11:38:57.349Z,71.51
2023-02-28T11:41:43.754Z,63.90
2023-02-28T11:44:26.800Z,60.10
2023-02-28T11:46:59.884Z,60.06
2023-02-28T11:49:36.935Z,60.90
2023-02-28T11:52:16.197Z,60.65
2023-02-28T11:55:04.673Z,59.39
2023-02-28T11:57:42.777Z,56.12
2023-02-28T12:00:28.918Z,57.10
2023-02-28T12:03:09.518Z,61.55
2023-02-28T12:05:46.943Z,57.55
2023-02-28T12:08:35.590Z,56.40
2023-02-28T12:11:14.257Z,54.85
2023-02-28T12:13:52.430Z,54.49
2023-02-28T12:16:46.967Z,50.76
2023-02-28T12:19:23.055Z,56.27
2023-02-28T12:22:24.170Z,49.31
2023-02-28T12:25:12.567Z,48.08
2023-02-28T12:27:45.029Z,46.78
2023-02-28T12:30:21.912Z,47.47
2023-02-28T12:32:56.612Z,50.83
2023-02-28T12:35:32.112Z,45.86
2023-02-28T12:38:11.620Z,43.81
2023-02-28T12:40:49.688Z,43.79
2023-02-28T12:43:21.525Z,44.12
2023-02-28T12:45:56.328Z,45.20
2023-02-28T12:48:33.738Z,45.48
2023-02-28T12:51:04.097Z,45.09
2023-02-28T12:53:47.126Z,44.33
2023-02-28T12:56:23.661Z,43.08
2023-02-28T12:58:58.151Z,42.28
2023-02-28T13:01:48.776Z,42.08
2023-02-28T13:04:47.495Z,42.09
2023-02-28T13:07:47.487Z,40.65
2023-02-28T13:10:19.704Z,42.50
2023-02-28T13:12:53.985Z,42.47
2023-02-28T13:15:26.572Z,42.52
2023-02-28T13:17:57.811Z,43.60
2023-02-28T13:20:31.242Z,44.74
2023-02-28T13:23:02.170Z,42.07
2023-02-28T13:25:55.748Z,44.40
2023-02-28T13:29:07.573Z,46.16
2023-02-28T13:32:10.065Z,46.09
2023-02-28T13:34:40.736Z,46.55
2023-02-28T13:37:39.233Z,46.12
2023-02-28T13:40:37.725Z,45.67
2023-02-28T13:43:11.511Z,43.57
2023-02-28T13:45:40.882Z,42.11
2023-02-28T13:48:21.448Z,43.95
2023-02-28T13:50:50.723Z,44.17
2023-02-28T13:53:49.144Z,44.96
2023-02-28T13:56:35.278Z,42.70
2023-02-28T13:59:18.450Z,47.03
2023-02-28T14:02:08.770Z,46.01
2023-02-28T14:05:02.907Z,43.32
2023-02-28T14:07:36.636Z,45.81
2023-02-28T14:10:09.517Z,46.38
2023-02-28T14:12:59.009Z,46.72
2023-02-28T14:15:46.957Z,43.80
2023-02-28T14:18:29.433Z,46.08
2023-02-28T14:21:12.033Z,47.29
2023-02-28T14:24:18.842Z,48.31
2023-02-28T14:27:18.266Z,46.10
2023-02-28T14:30:28.828Z,47.51
2023-02-28T14:33:14.436Z,47.97
2023-02-28T14:35:58.403Z,48.20
2023-02-28T14:38:30.569Z,49.15
2023-02-28T14:41:02.467Z,47.24
2023-02-28T14:43:31.728Z,48.64
2023-02-28T14:46:03.218Z,43.17
2023-02-28T14:48:34.796Z,43.32
2023-02-28T14:51:04.029Z,46.31
2023-02-28T14:53:39.244Z,54.65
2023-02-28T14:56:21.305Z,48.55
2023-02-28T14:58:54.393Z,50.25
2023-02-28T15:01:25.942Z,49.03
2023-02-28T15:04:06.104Z,50.09
2023-02-28T15:06:35.832Z,51.97
2023-02-28T15:09:18.601Z,53.34
2023-02-28T15:11:50.662Z,54.28
2023-02-28T15:14:22.942Z,54.99
2023-02-28T15:16:58.247Z,53.70
2023-02-28T15:19:32.534Z,50.22
2023-02-28T15:22:05.531Z,50.91
2023-02-28T15:24:40.271Z,49.71
2023-02-28T15:27:14.363Z,52.57
2023-02-28T15:29:48.506Z,52.91
2023-02-28T15:32:32.921Z,52.63
2023-02-28T15:35:20.895Z,48.81
2023-02-28T15:37:55.094Z,46.87
2023-02-28T15:40:29.103Z,49.91
2023-02-28T15:43:06.151Z,51.96
2023-02-28T15:45:41.999Z,52.16
2023-02-28T15:48:31.114Z,52.34
2023-02-28T15:51:09.849Z,53.52
2023-02-28T15:53:42.992Z,60.51
2023-02-28T15:56:22.858Z,61.98
2023-02-28T15:58:55.133Z,69.67
2023-02-28T16:01:29.261Z,74.68
2023-02-28T16:04:02.276Z,78.94
2023-02-28T16:06:43.998Z,80.71
2023-02-28T16:09:15.912Z,77.80
2023-02-28T16:11:47.703Z,75.09
2023-02-28T16:14:20.397Z,80.49
2023-02-28T16:16:52.664Z,78.13
2023-02-28T16:19:22.585Z,79.58
2023-02-28T16:21:53.176Z,79.11
2023-02-28T16:24:22.334Z,81.01
2023-02-28T16:26:55.601Z,80.62
2023-02-28T16:29:29.357Z,79.95
2023-02-28T16:31:59.115Z,79.14
2023-02-28T16:34:28.475Z,80.80
2023-02-28T16:36:59.426Z,86.04
2023-02-28T16:39:28.663Z,89.91
2023-02-28T16:41:57.720Z,87.43
2023-02-28T16:44:30.984Z,88.35
2023-02-28T16:47:01.394Z,90.69
2023-02-28T16:49:30.687Z,89.46
2023-02-28T16:52:01.133Z,91.53
2023-02-28T16:54:30.219Z,93.71
2023-02-28T16:56:59.444Z,94.33
2023-02-28T16:59:29.808Z,92.89
2023-02-28T17:01:59.906Z,94.33
2023-02-28T17:04:29.616Z,93.89
2023-02-28T17:07:00.019Z,95.26
2023-02-28T17:09:41.379Z,92.62
2023-02-28T17:12:11.992Z,97.17
2023-02-28T17:14:41.361Z,95.69
2023-02-28T17:17:18.242Z,100.00
2023-02-28T17:19:47.581Z,100.00
2023-02-28T17:22:18.025Z,100.00
2023-02-28T17:24:47.313Z,100.00
2023-02-28T17:27:16.606Z,100.00
2023-02-28T17:29:45.759Z,100.00
2023-02-28T17:32:18.757Z,100.00
2023-02-28T17:34:48.052Z,100.00
2023-02-28T17:37:18.526Z,100.00
2023-02-28T17:39:47.665Z,100.00
2023-02-28T17:42:16.809Z,100.00
2023-02-28T17:44:45.861Z,100.00
2023-02-28T17:47:15.424Z,100.00
2023-02-28T17:49:44.926Z,100.00
2023-02-28T17:52:14.459Z,100.00
2023-02-28T17:54:45.195Z,100.00
2023-02-28T17:57:16.463Z,100.00
2023-02-28T17:59:45.639Z,100.00
2023-02-28T18:02:16.218Z,100.00
2023-02-28T18:04:45.296Z,100.00
2023-02-28T18:07:15.027Z,100.00
2023-02-28T18:09:45.439Z,100.00
2023-02-28T18:12:14.627Z,100.00
2023-02-28T18:14:46.154Z,100.00
2023-02-28T18:17:15.868Z,100.00
2023-02-28T18:19:45.324Z,100.00
2023-02-28T18:22:14.499Z,100.00
2023-02-28T18:24:45.196Z,100.00
2023-02-28T18:27:14.309Z,100.00
2023-02-28T18:29:43.377Z,100.00
2023-02-28T18:32:12.752Z,100.00
2023-02-28T18:34:41.889Z,100.00
2023-02-28T18:37:11.989Z,100.00
2023-02-28T18:39:42.078Z,100.00
2023-02-28T18:42:12.768Z,100.00
2023-02-28T18:44:42.281Z,100.00
2023-02-28T18:47:11.982Z,100.00
2023-02-28T18:49:41.155Z,100.00
2023-02-28T18:52:10.266Z,100.00
2023-02-28T18:54:39.336Z,100.00
2023-02-28T18:57:08.469Z,100.00
2023-02-28T18:59:39.310Z,100.00
2023-02-28T19:02:10.143Z,100.00
2023-02-28T19:04:41.793Z,100.00
2023-02-28T19:07:10.854Z,100.00
2023-02-28T19:09:39.962Z,100.00
2023-02-28T19:12:09.429Z,100.00
2023-02-28T19:14:40.023Z,100.00
2023-02-28T19:17:09.155Z,100.00
2023-02-28T19:19:38.356Z,100.00
2023-02-28T19:22:07.592Z,100.00
2023-02-28T19:24:36.922Z,100.00
2023-02-28T19:27:06.149Z,100.00
2023-02-28T19:29:35.519Z,100.00
2023-02-28T19:32:06.252Z,100.00
2023-02-28T19:34:35.742Z,100.00
2023-02-28T19:37:04.828Z,100.00
2023-02-28T19:39:41.464Z,100.00
2023-02-28T19:42:11.532Z,100.00
2023-02-28T19:44:40.661Z,100.00
2023-02-28T19:47:12.008Z,100.00
2023-02-28T19:49:41.280Z,100.00
2023-02-28T19:52:13.456Z,100.00
2023-02-28T19:54:44.753Z,100.00
2023-02-28T19:57:13.867Z,100.00
2023-02-28T19:59:43.104Z,100.00
2023-02-28T20:02:16.299Z,100.00
2023-02-28T20:04:49.253Z,100.00
2023-02-28T20:07:20.176Z,100.00
2023-02-28T20:09:49.946Z,100.00
2023-02-28T20:12:24.784Z,100.00
2023-02-28T20:14:56.076Z,100.00
2023-02-28T20:17:26.738Z,100.00
2023-02-28T20:19:55.970Z,100.00
2023-02-28T20:22:25.206Z,100.00
2023-02-28T20:24:54.411Z,100.00
2023-02-28T20:27:23.514Z,100.00
2023-02-28T20:29:53.223Z,100.00
2023-02-28T20:32:22.625Z,100.00
2023-02-28T20:34:53.488Z,100.00
2023-02-28T20:37:22.630Z,100.00
2023-02-28T20:39:53.008Z,100.00
2023-02-28T20:42:22.077Z,100.00
2023-02-28T20:44:51.160Z,100.00
2023-02-28T20:47:20.344Z,100.00
2023-02-28T20:49:49.411Z,100.00
2023-02-28T20:52:20.115Z,100.00
2023-02-28T20:54:49.484Z,100.00
2023-02-28T20:57:18.544Z,100.00
2023-02-28T20:59:47.753Z,100.00
2023-02-28T21:02:18.050Z,100.00
2023-02-28T21:04:47.336Z,100.00
2023-02-28T21:07:16.545Z,100.00
2023-02-28T21:09:47.228Z,100.00
2023-02-28T21:12:16.605Z,100.00
2023-02-28T21:14:45.676Z,100.00
2023-02-28T21:17:15.254Z,100.00
2023-02-28T21:19:44.304Z,100.00
2023-02-28T21:22:13.898Z,100.00
2023-02-28T21:24:43.918Z,100.00
2023-02-28T21:27:14.341Z,100.00
2023-02-28T21:29:43.482Z,100.00
2023-02-28T21:32:14.506Z,100.00
2023-02-28T21:34:43.621Z,100.00
2023-02-28T21:37:12.780Z,100.00
2023-02-28T21:39:41.874Z,100.00
2023-02-28T21:42:10.974Z,100.00
2023-02-28T21:44:41.569Z,100.00
2023-02-28T21:47:11.000Z,100.00
2023-02-28T21:49:40.205Z,100.00
2023-02-28T21:52:09.381Z,100.00
2023-02-28T21:54:38.591Z,100.00
2023-02-28T21:57:07.691Z,100.00
2023-02-28T21:59:37.161Z,100.00
2023-02-28T22:02:10.579Z,100.00
2023-02-28T22:04:40.743Z,100.00
2023-02-28T22:07:09.813Z,100.00
2023-02-28T22:09:39.021Z,100.00
2023-02-28T22:12:08.538Z,100.00
2023-02-28T22:14:39.631Z,100.00
2023-02-28T22:17:10.281Z,100.00
2023-02-28T22:19:39.555Z,100.00
2023-02-28T22:22:08.651Z,100.00
2023-02-28T22:24:37.790Z,100.00
2023-02-28T22:27:06.877Z,100.00
2023-02-28T22:29:35.984Z,100.00
2023-02-28T22:32:05.314Z,100.00
2023-02-28T22:34:35.749Z,100.00
2023-02-28T22:37:04.808Z,100.00
2023-02-28T22:39:33.867Z,100.00
2023-02-28T22:42:02.902Z,100.00
2023-02-28T22:44:32.041Z,100.00
2023-02-28T22:47:01.432Z,100.00
2023-02-28T22:49:30.795Z,100.00
2023-02-28T22:52:01.270Z,100.00
2023-02-28T22:54:30.325Z,100.00
2023-02-28T22:56:59.410Z,100.00
2023-02-28T22:59:28.499Z,100.00
2023-02-28T23:01:57.754Z,100.00
2023-02-28T23:04:27.012Z,100.00
2023-02-28T23:06:56.151Z,100.00
2023-02-28T23:09:26.617Z,100.00
2023-02-28T23:11:55.718Z,100.00
2023-02-28T23:14:24.791Z,100.00
2023-02-28T23:16:55.727Z,100.00
2023-02-28T23:19:27.722Z,100.00
2023-02-28T23:21:57.800Z,100.00
2023-02-28T23:24:30.562Z,100.00
2023-02-28T23:27:02.220Z,100.00
2023-02-28T23:29:31.684Z,100.00
2023-02-28T23:32:01.062Z,100.00
2023-02-28T23:34:32.006Z,100.00
2023-02-28T23:37:02.774Z,100.00
2023-02-28T23:39:33.558Z,100.00
2023-02-28T23:42:02.648Z,100.00
2023-02-28T23:44:31.794Z,100.00
2023-02-28T23:47:00.931Z,100.00
2023-02-28T23:49:30.061Z,100.00
2023-02-28T23:51:59.168Z,100.00
2023-02-28T23:54:28.568Z,100.00
2023-02-28T23:56:59.285Z,100.00
2023-02-28T23:59:28.442Z,100.00
